createdAt,value
2023-04-20T00:00:18.138Z,8.90
2023-04-20T00:05:43.057Z,8.90
2023-04-20T00:11:06.281Z,8.90
2023-04-20T00:16:31.280Z,8.90
2023-04-20T00:21:57.260Z,8.90
2023-04-20T00:27:25.213Z,8.90
2023-04-20T00:32:59.298Z,8.80
2023-04-20T00:38:23.210Z,8.80
2023-04-20T00:43:58.161Z,8.80
2023-04-20T00:49:35.068Z,8.80
2023-04-20T00:55:02.853Z,8.80
2023-04-20T01:00:26.151Z,8.90
2023-04-20T01:05:54.378Z,8.80
2023-04-20T01:11:17.147Z,8.80
2023-04-20T01:16:46.181Z,8.80
2023-04-20T01:22:11.212Z,8.90
2023-04-20T01:27:36.254Z,9.00
2023-04-20T01:33:01.997Z,9.00
2023-04-20T01:38:26.257Z,9.10
2023-04-20T01:43:57.274Z,9.10
2023-04-20T01:49:21.290Z,9.00
2023-04-20T01:54:47.188Z,9.00
2023-04-20T02:00:16.206Z,9.00
2023-04-20T02:05:40.297Z,8.90
2023-04-20T02:11:03.197Z,8.90
2023-04-20T02:16:28.215Z,8.80
2023-04-20T02:21:52.470Z,8.80
2023-04-20T02:27:15.278Z,8.90
2023-04-20T02:32:41.330Z,8.80
2023-04-20T02:38:07.861Z,8.90
2023-04-20T02:43:31.314Z,8.90
2023-04-20T02:48:56.297Z,9.00
2023-04-20T02:54:34.321Z,9.00
2023-04-20T03:00:00.261Z,9.00
2023-04-20T03:05:55.202Z,8.90
2023-04-20T03:11:23.462Z,8.90
2023-04-20T03:16:48.446Z,8.80
2023-04-20T03:22:16.298Z,8.70
2023-04-20T03:27:43.298Z,8.60
2023-04-20T03:33:13.294Z,8.60
2023-04-20T03:38:38.356Z,8.60
2023-04-20T03:44:01.274Z,8.50
2023-04-20T03:49:31.523Z,8.50
2023-04-20T03:54:58.391Z,8.50
2023-04-20T04:00:25.382Z,8.50
2023-04-20T04:06:01.281Z,8.50
2023-04-20T04:11:26.268Z,8.50
2023-04-20T04:16:50.350Z,8.50
2023-04-20T04:22:13.237Z,8.50
2023-04-20T04:27:58.338Z,8.50
2023-04-20T04:33:25.332Z,8.50
2023-04-20T04:38:49.443Z,8.40
2023-04-20T04:44:16.726Z,8.40
2023-04-20T04:49:39.349Z,8.30
2023-04-20T04:55:02.252Z,8.30
2023-04-20T05:00:30.851Z,8.30
2023-04-20T05:05:54.418Z,8.30
2023-04-20T05:11:17.582Z,8.30
2023-04-20T05:16:49.438Z,8.30
2023-04-20T05:22:16.426Z,8.30
2023-04-20T05:27:42.320Z,8.30
2023-04-20T05:33:07.386Z,8.20
2023-04-20T05:38:31.472Z,8.20
2023-04-20T05:44:03.337Z,8.20
2023-04-20T05:49:28.669Z,8.10
2023-04-20T05:54:51.472Z,8.10
2023-04-20T06:00:16.405Z,8.20
2023-04-20T06:05:41.514Z,8.10
2023-04-20T06:11:07.471Z,8.10
2023-04-20T06:16:34.267Z,8.10
2023-04-20T06:22:03.342Z,8.20
2023-04-20T06:27:28.396Z,8.10
2023-04-20T06:32:54.739Z,8.10
2023-04-20T06:38:21.376Z,8.00
2023-04-20T06:43:48.508Z,7.90
2023-04-20T06:49:12.671Z,7.80
2023-04-20T06:54:37.450Z,7.80
2023-04-20T07:00:00.877Z,7.80
2023-04-20T07:05:26.385Z,7.80
2023-04-20T07:10:52.721Z,7.90
2023-04-20T07:16:16.366Z,7.90
2023-04-20T07:21:40.358Z,7.90
2023-04-20T07:27:09.876Z,7.90
2023-04-20T07:32:32.461Z,7.80
2023-04-20T07:37:56.629Z,7.90
2023-04-20T07:43:23.412Z,7.90
2023-04-20T07:48:47.387Z,7.90
2023-04-20T07:54:14.447Z,8.00
2023-04-20T07:59:44.555Z,8.00
2023-04-20T08:05:07.498Z,8.20
2023-04-20T08:10:35.172Z,8.30
2023-04-20T08:16:03.573Z,8.40
2023-04-20T08:21:29.629Z,8.50
2023-04-20T08:26:57.440Z,8.60
2023-04-20T08:32:22.740Z,8.60
2023-04-20T08:37:45.659Z,8.70
2023-04-20T08:43:08.393Z,8.80
2023-04-20T08:48:35.454Z,8.80
2023-04-20T08:54:03.379Z,8.90
2023-04-20T08:59:26.447Z,8.90
2023-04-20T09:04:55.528Z,9.00
2023-04-20T09:10:19.549Z,9.00
2023-04-20T09:15:44.543Z,9.10
2023-04-20T09:21:09.450Z,9.30
2023-04-20T09:26:32.578Z,9.40
2023-04-20T09:31:55.472Z,9.50
2023-04-20T09:37:29.466Z,9.70
2023-04-20T09:42:57.585Z,9.90
2023-04-20T09:48:25.654Z,10.00
2023-04-20T09:53:57.791Z,10.20
2023-04-20T09:59:32.695Z,10.30
2023-04-20T10:05:08.493Z,10.50
2023-04-20T10:10:39.631Z,10.60
2023-04-20T10:16:28.771Z,10.80
2023-04-20T10:22:16.272Z,11.00
2023-04-20T10:28:12.535Z,11.10
2023-04-20T10:33:58.002Z,11.20
2023-04-20T10:40:08.701Z,11.30
2023-04-20T10:46:24.990Z,11.50
2023-04-20T10:53:02.218Z,11.50
2023-04-20T11:05:11.643Z,11.80
2023-04-20T11:17:44.734Z,12.10
2023-04-20T11:23:21.238Z,12.20
2023-04-20T11:29:37.831Z,12.30
2023-04-20T11:42:54.948Z,12.40
2023-04-20T11:48:47.215Z,12.40
2023-04-20T11:54:42.608Z,12.30
2023-04-20T12:00:20.569Z,12.20
2023-04-20T12:06:06.104Z,12.20
2023-04-20T12:11:31.630Z,12.20
2023-04-20T12:17:23.364Z,12.20
2023-04-20T12:35:50.934Z,13.20
2023-04-20T12:42:23.748Z,13.50
2023-04-20T12:48:53.498Z,13.80
2023-04-20T12:54:16.193Z,13.90
2023-04-20T13:06:01.201Z,13.80
2023-04-20T13:11:42.582Z,13.80
2023-04-20T13:17:14.354Z,14.00
2023-04-20T13:23:20.532Z,14.30
2023-04-20T13:29:09.826Z,14.40
2023-04-20T13:40:58.681Z,14.20
2023-04-20T13:46:55.754Z,14.30
2023-04-20T13:52:40.357Z,14.50
2023-04-20T13:58:06.664Z,14.50
2023-04-20T14:03:53.477Z,14.20
2023-04-20T14:09:48.250Z,13.90
2023-04-20T14:15:29.564Z,13.60
2023-04-20T14:27:12.919Z,13.10
2023-04-20T14:32:45.967Z,12.80
2023-04-20T14:38:21.492Z,12.40
2023-04-20T14:44:39.564Z,12.20
2023-04-20T14:58:01.520Z,12.00
2023-04-20T15:03:21.294Z,12.10
2023-04-20T15:08:46.865Z,12.20
2023-04-20T15:14:25.465Z,12.30
2023-04-20T15:19:46.344Z,12.30
2023-04-20T15:25:26.220Z,12.30
2023-04-20T15:36:47.492Z,12.20
2023-04-20T15:42:45.031Z,12.20
2023-04-20T15:48:34.215Z,12.20
2023-04-20T15:54:31.505Z,12.20
2023-04-20T15:59:44.795Z,12.10
2023-04-20T16:05:58.761Z,12.10
2023-04-20T16:11:27.084Z,12.00
2023-04-20T16:16:55.461Z,11.90
2023-04-20T16:23:05.465Z,11.90
2023-04-20T16:29:10.446Z,11.80
2023-04-20T16:34:47.015Z,11.80
2023-04-20T16:41:51.194Z,11.80
2023-04-20T16:54:24.204Z,11.70
2023-04-20T17:06:26.329Z,11.60
2023-04-20T17:12:23.923Z,11.60
2023-04-20T17:32:04.042Z,11.40
2023-04-20T17:45:25.580Z,11.30
2023-04-20T17:57:53.379Z,11.20
2023-04-20T18:37:13.368Z,11.00
2023-04-20T18:42:50.441Z,11.00
2023-04-20T19:55:42.524Z,10.50
2023-04-20T20:46:32.480Z,10.80
2023-04-20T21:05:14.121Z,10.90
2023-04-20T21:25:00.009Z,11.00
2023-04-20T21:31:12.878Z,11.00
2023-04-20T21:55:44.466Z,11.10
2023-04-20T22:00:47.801Z,11.00
2023-04-20T22:05:52.537Z,11.00
2023-04-20T22:10:59.244Z,11.00
2023-04-20T22:16:04.255Z,11.00
2023-04-20T22:21:13.690Z,11.00
2023-04-20T22:26:30.536Z,11.00
2023-04-20T22:31:36.874Z,10.90
2023-04-20T22:36:45.943Z,11.00
2023-04-20T22:41:49.512Z,10.90
2023-04-20T22:46:55.483Z,10.90
2023-04-20T22:52:00.600Z,10.90
2023-04-20T22:57:06.416Z,10.90
2023-04-20T23:02:15.768Z,10.90
2023-04-20T23:07:21.593Z,10.90
2023-04-20T23:12:26.182Z,10.90
2023-04-20T23:17:33.214Z,10.90
2023-04-20T23:22:38.262Z,10.90
2023-04-20T23:27:41.623Z,10.90
2023-04-20T23:32:47.595Z,10.90
2023-04-20T23:37:52.713Z,10.90
2023-04-20T23:42:56.280Z,10.90
2023-04-20T23:48:02.706Z,11.00
2023-04-20T23:53:10.993Z,11.00
2023-04-20T23:58:14.272Z,11.00
